Time;durP1;ratioP1;P1;durP2;ratioP2;P2;SDS_P1;SDS_P2;PMS_P1;PMS_P2;Temp;Humidity;BMP_temperature;BMP_pressure;BME280_temperature;BME280_humidity;BME280_pressure;Samples;Min_cycle;Max_cycle;Signal;HPM_P1;HPM_P2
2023/11/10 00:01:24;;;;;;;24.60;11.70;;;;;;;2.88;100.00;97792.00;5085346;28;20027;-74
2023/11/10 00:03:49;;;;;;;22.08;11.35;;;;;;;2.87;100.00;97799.94;5077126;28;20042;-75
2023/11/10 00:06:15;;;;;;;22.23;11.20;;;;;;;2.89;100.00;97790.22;5071413;28;20031;-75
2023/11/10 00:08:41;;;;;;;22.10;10.40;;;;;;;2.85;100.00;97785.94;5068866;28;20078;-74
2023/11/10 00:11:07;;;;;;;29.63;10.73;;;;;;;2.82;100.00;97778.97;5070093;28;20498;-75
2023/11/10 00:13:34;;;;;;;23.88;9.07;;;;;;;2.84;100.00;97795.63;5071327;28;20024;-75
2023/11/10 00:16:00;;;;;;;17.80;9.63;;;;;;;2.84;100.00;97789.47;5063220;28;20084;-75
2023/11/10 00:18:25;;;;;;;22.23;10.40;;;;;;;2.84;100.00;97784.19;5088551;28;20028;-75
2023/11/10 00:20:51;;;;;;;21.70;10.55;;;;;;;2.86;100.00;97788.50;5085160;28;20478;-76
2023/11/10 00:23:18;;;;;;;22.48;9.98;;;;;;;2.87;100.00;97790.25;5074291;28;20020;-75
2023/11/10 00:25:43;;;;;;;18.10;8.77;;;;;;;2.87;100.00;97784.09;5051641;28;20031;-75
2023/11/10 00:28:10;;;;;;;18.23;9.30;;;;;;;2.80;100.00;97777.28;5069888;28;20024;-75
2023/11/10 00:30:36;;;;;;;17.55;9.13;;;;;;;2.86;100.00;97793.78;5074274;28;20552;-75
2023/11/10 00:33:02;;;;;;;23.25;9.90;;;;;;;2.91;100.00;97796.31;5080925;28;20032;-75
2023/11/10 00:35:31;;;;;;;22.73;10.40;;;;;;;2.96;100.00;97797.06;5075238;28;20024;-75
2023/11/10 00:37:56;;;;;;;24.23;11.70;;;;;;;2.85;100.00;97786.81;5083160;28;20060;-74
2023/11/10 00:40:22;;;;;;;22.98;11.60;;;;;;;2.91;100.00;97783.13;5063635;28;20059;-74
2023/11/10 00:42:47;;;;;;;33.65;13.82;;;;;;;2.88;100.00;97780.56;5066008;28;20021;-75
2023/11/10 00:45:13;;;;;;;43.67;15.70;;;;;;;2.84;100.00;97790.34;5084375;28;20035;-75
2023/11/10 00:47:38;;;;;;;31.90;12.82;;;;;;;2.80;100.00;97782.56;5086477;28;20043;-74
2023/11/10 00:50:05;;;;;;;31.90;13.52;;;;;;;2.80;100.00;97778.13;5072631;28;20098;-74
2023/11/10 00:52:31;;;;;;;31.55;13.00;;;;;;;2.80;100.00;97783.41;5073521;28;20039;-75
2023/11/10 00:54:56;;;;;;;27.15;11.82;;;;;;;2.78;100.00;97773.78;5056673;28;20020;-75
2023/11/10 00:57:23;;;;;;;26.05;11.90;;;;;;;2.76;100.00;97771.22;5071359;28;20036;-76
2023/11/10 00:59:48;;;;;;;24.15;11.77;;;;;;;2.77;100.00;97786.13;5090630;28;20066;-76
2023/11/10 01:02:14;;;;;;;26.08;11.55;;;;;;;2.78;100.00;97777.31;5088086;28;20108;-75
2023/11/10 01:04:39;;;;;;;24.38;11.15;;;;;;;2.83;100.00;97777.19;5080028;28;20024;-75
2023/11/10 01:07:05;;;;;;;24.45;11.00;;;;;;;2.76;100.00;97786.19;5071132;28;20040;-74
2023/11/10 01:09:30;;;;;;;29.38;12.45;;;;;;;2.71;100.00;97779.25;5072806;28;20028;-75
2023/11/10 01:11:56;;;;;;;25.35;11.68;;;;;;;2.72;100.00;97775.72;5088575;28;20040;-75
2023/11/10 01:14:22;;;;;;;23.92;10.95;;;;;;;2.69;100.00;97782.84;5085990;28;20112;-75
2023/11/10 01:16:47;;;;;;;26.80;11.07;;;;;;;2.70;100.00;97782.81;5080535;28;20028;-75
2023/11/10 01:19:13;;;;;;;27.40;11.50;;;;;;;2.70;100.00;97784.59;5085724;28;20392;-75
2023/11/10 01:21:38;;;;;;;22.48;10.35;;;;;;;2.67;100.00;97779.38;5060973;28;20121;-76
2023/11/10 01:24:04;;;;;;;35.17;11.50;;;;;;;2.63;100.00;97773.31;5085964;28;20137;-76
2023/11/10 01:26:29;;;;;;;24.42;11.50;;;;;;;2.71;100.00;97778.38;5091446;28;20028;-75
2023/11/10 01:28:55;;;;;;;29.42;12.30;;;;;;;2.67;100.00;97769.69;5085442;28;20135;-75
2023/11/10 01:31:21;;;;;;;24.48;11.13;;;;;;;2.59;100.00;97763.72;5092694;28;20435;-75
2023/11/10 01:33:47;;;;;;;25.33;12.02;;;;;;;2.53;100.00;97771.81;5091268;28;20019;-75
2023/11/10 01:36:12;;;;;;;27.20;12.32;;;;;;;2.47;100.00;97764.06;5077758;28;20020;-76
2023/11/10 01:38:40;;;;;;;24.63;11.32;;;;;;;2.52;100.00;97762.16;5086136;28;20073;-75
2023/11/10 01:41:06;;;;;;;30.38;11.27;;;;;;;2.42;100.00;97763.34;5071730;28;20060;-75
2023/11/10 01:43:31;;;;;;;21.90;11.57;;;;;;;2.38;100.00;97769.59;5083287;28;20028;-75
2023/11/10 01:45:57;;;;;;;22.73;11.07;;;;;;;2.43;100.00;97759.75;5070351;28;20079;-76
2023/11/10 01:48:23;;;;;;;29.48;11.45;;;;;;;2.44;100.00;97745.69;5063197;28;20483;-74
2023/11/10 01:50:48;;;;;;;28.80;11.57;;;;;;;2.48;100.00;97749.97;5090795;28;20028;-75
2023/11/10 01:53:14;;;;;;;24.08;11.15;;;;;;;2.45;100.00;97743.91;5073755;28;20035;-75
2023/11/10 01:55:41;;;;;;;28.67;12.38;;;;;;;2.38;100.00;97740.56;5073937;28;20024;-76
2023/11/10 01:58:07;;;;;;;25.33;11.00;;;;;;;2.33;100.00;97747.75;5070273;28;20032;-76
2023/11/10 02:00:32;;;;;;;27.50;11.27;;;;;;;2.33;100.00;97742.47;5070538;28;20408;-76
2023/11/10 02:03:04;;;;;;;28.05;11.63;;;;;;;2.38;100.00;97735.28;5053672;28;20024;-76
2023/11/10 02:05:36;;;;;;;27.40;13.55;;;;;;;2.30;100.00;97744.31;5049094;28;20024;-75
2023/11/10 02:08:04;;;;;;;35.78;13.00;;;;;;;2.36;100.00;97728.31;5079058;28;20031;-75
2023/11/10 02:10:30;;;;;;;35.17;11.90;;;;;;;2.35;100.00;97729.22;5066340;28;20476;-75
2023/11/10 02:12:57;;;;;;;29.10;11.23;;;;;;;2.36;100.00;97738.88;5065380;28;20031;-76
2023/11/10 02:15:23;;;;;;;22.77;11.75;;;;;;;2.38;100.00;97740.56;5073321;28;20032;-75
2023/11/10 02:17:49;;;;;;;30.13;10.93;;;;;;;2.59;100.00;97742.63;5085605;28;20544;-76
2023/11/10 02:20:15;;;;;;;26.42;11.02;;;;;;;2.57;100.00;97725.09;5086901;28;20560;-76
2023/11/10 02:22:44;;;;;;;26.15;11.40;;;;;;;2.70;100.00;97734.41;5053471;28;20040;-76
2023/11/10 02:25:14;;;;;;;23.80;10.60;;;;;;;2.76;100.00;97722.81;5070401;28;20480;-75
2023/11/10 02:27:40;;;;;;;29.25;12.18;;;;;;;2.70;100.00;97719.44;5085807;28;20472;-75
2023/11/10 02:30:07;;;;;;;29.10;11.90;;;;;;;2.70;100.00;97722.09;5069905;28;20024;-75
2023/11/10 02:32:33;;;;;;;20.65;10.65;;;;;;;2.70;100.00;97724.72;5069946;28;20032;-75
2023/11/10 02:35:02;;;;;;;19.25;10.68;;;;;;;2.60;100.00;97723.25;5053140;28;20093;-76
2023/11/10 02:37:27;;;;;;;24.05;10.07;;;;;;;2.56;100.00;97715.44;5072101;28;20036;-75
2023/11/10 02:39:53;;;;;;;23.98;8.55;;;;;;;2.56;100.00;97721.59;5075632;28;20035;-75
2023/11/10 02:42:19;;;;;;;17.75;8.48;;;;;;;2.55;100.00;97725.13;5079284;28;20029;-74
2023/11/10 02:44:44;;;;;;;13.63;6.15;;;;;;;2.71;100.00;97734.34;5089982;28;20475;-75
2023/11/10 02:47:10;;;;;;;12.85;6.40;;;;;;;3.22;100.00;97724.06;5082619;28;20476;-75
2023/11/10 02:49:35;;;;;;;9.35;5.13;;;;;;;3.78;100.00;97702.91;5081431;28;20055;-76
2023/11/10 02:52:01;;;;;;;8.35;4.53;;;;;;;4.04;100.00;97715.25;5083255;28;20032;-76
2023/11/10 02:54:27;;;;;;;6.75;2.90;;;;;;;4.56;100.00;97680.78;5078131;28;20047;-76
2023/11/10 02:56:52;;;;;;;9.80;3.90;;;;;;;4.82;100.00;97688.66;5077982;28;20012;-76
2023/11/10 02:59:18;;;;;;;12.18;6.20;;;;;;;4.57;100.00;97679.00;5077473;28;20437;-75
2023/11/10 03:01:44;;;;;;;14.70;6.15;;;;;;;4.32;100.00;97666.63;5065743;28;20051;-76
2023/11/10 03:04:09;;;;;;;11.43;5.43;;;;;;;4.41;100.00;97670.72;5082667;28;20035;-76
2023/11/10 03:06:35;;;;;;;11.63;5.40;;;;;;;4.27;100.00;97670.38;5081016;28;20039;-75
2023/11/10 03:09:04;;;;;;;14.40;6.57;;;;;;;4.11;100.00;97675.31;5089657;28;20031;-76
2023/11/10 03:11:30;;;;;;;14.48;6.93;;;;;;;3.96;100.00;97673.19;5080940;28;20028;-76
2023/11/10 03:13:58;;;;;;;21.85;7.75;;;;;;;3.83;100.00;97691.25;5075779;28;20029;-75
2023/11/10 03:16:23;;;;;;;14.90;7.15;;;;;;;3.65;100.00;97681.28;5078902;28;20027;-75
2023/11/10 03:19:12;;;;;;;25.27;8.90;;;;;;;3.55;100.00;97693.06;5070698;28;20021;-75
2023/11/10 03:21:41;;;;;;;19.55;7.22;;;;;;;3.39;100.00;97683.00;5078496;28;20137;-74
2023/11/10 03:24:09;;;;;;;13.70;6.85;;;;;;;3.40;100.00;97682.97;5078934;28;20043;-75
2023/11/10 03:26:35;;;;;;;28.55;8.60;;;;;;;3.38;100.00;97679.53;5080846;28;20032;-76
2023/11/10 03:29:06;;;;;;;28.17;9.10;;;;;;;3.34;100.00;97682.31;5075474;28;20408;-74
2023/11/10 03:31:32;;;;;;;15.27;6.07;;;;;;;3.31;100.00;97680.63;5077365;28;20035;-75
2023/11/10 03:33:57;;;;;;;15.05;6.60;;;;;;;3.13;100.00;97675.91;5070259;28;20036;-76
2023/11/10 03:36:23;;;;;;;24.55;10.68;;;;;;;2.98;100.00;97663.16;5052505;28;20090;-74
2023/11/10 03:38:48;;;;;;;19.05;6.95;;;;;;;2.95;100.00;97653.56;5085620;28;20494;-76
2023/11/10 03:41:17;;;;;;;11.30;5.45;;;;;;;3.01;100.00;97660.44;5084773;28;20522;-75
2023/11/10 03:43:43;;;;;;;21.70;9.52;;;;;;;3.17;100.00;97662.53;5080807;28;20028;-74
2023/11/10 03:46:09;;;;;;;17.85;9.82;;;;;;;3.12;100.00;97658.31;5089165;28;20028;-75
2023/11/10 03:48:34;;;;;;;26.63;11.60;;;;;;;3.12;100.00;97667.13;5079230;28;20043;-74
2023/11/10 03:51:16;;;;;;;16.33;7.45;;;;;;;2.95;100.00;97665.91;5078682;28;20032;-75
2023/11/10 03:53:42;;;;;;;25.10;10.43;;;;;;;2.86;100.00;97658.25;5081004;28;20031;-75
2023/11/10 03:56:08;;;;;;;17.08;8.98;;;;;;;2.77;100.00;97662.00;5083417;28;20029;-75
2023/11/10 03:58:35;;;;;;;80.25;35.30;;;;;;;2.65;100.00;97650.03;5071482;28;20524;-75
2023/11/10 04:01:01;;;;;;;55.83;23.42;;;;;;;2.61;100.00;97648.41;5063658;28;20411;-76
2023/11/10 04:03:26;;;;;;;21.20;8.93;;;;;;;2.60;100.00;97654.59;5089473;28;20044;-74
2023/11/10 04:06:11;;;;;;;18.50;8.77;;;;;;;2.48;100.00;97635.59;5090457;28;20024;-75
2023/11/10 04:08:39;;;;;;;15.98;8.68;;;;;;;2.51;100.00;97651.34;5062446;28;20119;-74
2023/11/10 04:11:05;;;;;;;22.83;9.15;;;;;;;2.47;100.00;97658.47;5077680;28;20032;-76
2023/11/10 04:13:30;;;;;;;16.88;8.43;;;;;;;2.38;100.00;97640.28;5075777;28;20077;-75
2023/11/10 04:15:59;;;;;;;16.08;7.78;;;;;;;2.43;100.00;97632.25;5087919;28;20043;-77
2023/11/10 04:18:27;;;;;;;13.55;7.13;;;;;;;2.50;100.00;97639.03;5081688;28;20491;-75
2023/11/10 04:20:53;;;;;;;16.08;6.97;;;;;;;2.47;100.00;97634.72;5094172;28;20068;-75
2023/11/10 04:23:25;;;;;;;14.02;6.72;;;;;;;2.55;100.00;97627.44;5086178;28;20063;-75
2023/11/10 04:25:50;;;;;;;21.35;8.15;;;;;;;2.58;100.00;97634.44;5074149;28;20032;-76
2023/11/10 04:28:16;;;;;;;18.25;8.75;;;;;;;2.62;100.00;97641.34;5078335;28;20097;-75
2023/11/10 04:30:41;;;;;;;22.30;8.50;;;;;;;2.72;100.00;97638.38;5082001;28;20071;-76
2023/11/10 04:33:07;;;;;;;18.25;9.20;;;;;;;2.72;100.00;97634.88;5080628;28;20476;-77
2023/11/10 04:35:33;;;;;;;30.95;7.75;;;;;;;2.86;100.00;97634.47;5082238;28;20035;-76
2023/11/10 04:38:00;;;;;;;21.83;7.28;;;;;;;2.98;100.00;97642.03;5080909;28;20032;-76
2023/11/10 04:40:27;;;;;;;14.70;6.63;;;;;;;3.02;100.00;97643.66;5055789;28;20099;-77
2023/11/10 04:42:56;;;;;;;23.55;7.05;;;;;;;2.99;100.00;97625.25;5077332;28;20115;-75
2023/11/10 04:45:24;;;;;;;14.15;7.10;;;;;;;3.16;100.00;97644.09;5089659;28;20038;-76
2023/11/10 04:47:51;;;;;;;20.17;8.43;;;;;;;3.19;100.00;97639.59;5088723;28;20043;-75
2023/11/10 04:50:16;;;;;;;18.42;9.23;;;;;;;3.20;100.00;97635.16;5055434;28;20098;-77
2023/11/10 04:52:42;;;;;;;22.17;10.15;;;;;;;3.21;100.00;97632.47;5088840;28;20032;-76
2023/11/10 04:55:11;;;;;;;25.90;11.80;;;;;;;3.18;100.00;97623.78;5086687;28;20024;-75
2023/11/10 04:57:37;;;;;;;25.98;12.35;;;;;;;3.24;100.00;97623.56;5071875;28;20097;-75
2023/11/10 05:00:06;;;;;;;24.30;11.05;;;;;;;3.25;100.00;97617.38;5065527;28;20457;-76
2023/11/10 05:02:33;;;;;;;23.65;9.35;;;;;;;3.31;100.00;97613.69;5065699;28;20093;-77
2023/11/10 05:05:00;;;;;;;33.80;12.55;;;;;;;3.31;100.00;97616.31;5062750;28;20029;-77
2023/11/10 05:07:26;;;;;;;31.88;11.75;;;;;;;3.26;100.00;97605.91;5080160;28;20025;-75
2023/11/10 05:09:52;;;;;;;23.23;11.82;;;;;;;3.23;100.00;97613.94;5071362;28;20036;-76
2023/11/10 05:12:18;;;;;;;27.38;11.95;;;;;;;3.15;100.00;97611.53;5085063;28;20471;-75
2023/11/10 05:14:44;;;;;;;26.52;12.50;;;;;;;3.14;100.00;97608.91;5083071;28;20499;-76
2023/11/10 05:17:10;;;;;;;22.95;10.68;;;;;;;3.26;100.00;97621.78;5080011;28;20044;-77
2023/11/10 05:19:36;;;;;;;23.40;11.30;;;;;;;3.26;100.00;97616.47;5083684;28;20104;-76
2023/11/10 05:22:01;;;;;;;22.67;10.18;;;;;;;3.18;100.00;97615.84;5085163;28;20040;-75
2023/11/10 05:24:27;;;;;;;19.27;9.10;;;;;;;3.24;100.00;97623.56;5076051;28;20512;-76
2023/11/10 05:26:53;;;;;;;17.92;8.90;;;;;;;3.17;100.00;97619.38;5078146;28;20112;-74
2023/11/10 05:29:18;;;;;;;18.23;9.57;;;;;;;3.21;100.00;97621.03;5084021;28;20040;-73
2023/11/10 05:31:45;;;;;;;27.55;12.20;;;;;;;3.30;100.00;97612.81;5071955;28;20093;-72
2023/11/10 05:34:12;;;;;;;37.50;11.18;;;;;;;3.38;100.00;97610.81;5051728;28;20036;-72
2023/11/10 05:36:38;;;;;;;26.33;10.52;;;;;;;3.47;100.00;97620.22;5086246;28;20035;-73
2023/11/10 05:39:04;;;;;;;24.83;10.88;;;;;;;3.53;100.00;97622.66;5083616;28;20040;-73
2023/11/10 05:41:32;;;;;;;26.50;12.02;;;;;;;3.56;100.00;97628.69;5072373;28;20116;-73
2023/11/10 05:43:58;;;;;;;33.90;10.20;;;;;;;3.57;100.00;97614.53;5071789;28;20024;-73
2023/11/10 05:46:24;;;;;;;34.80;11.65;;;;;;;3.71;100.00;97620.25;5070693;28;20089;-72
2023/11/10 05:48:50;;;;;;;31.75;11.93;;;;;;;3.74;100.00;97616.63;5070432;28;20403;-73
2023/11/10 05:51:15;;;;;;;32.38;12.25;;;;;;;3.81;100.00;97624.28;5071971;28;20029;-74
2023/11/10 05:57:07;;;;;;;27.73;12.30;;;;;;;4.13;100.00;97625.84;5079686;28;20032;-73
2023/11/10 05:59:51;;;;;;;36.47;13.48;;;;;;;4.21;100.00;97626.44;5072614;28;20023;-74
2023/11/10 06:02:22;;;;;;;36.92;13.85;;;;;;;4.36;100.00;97619.72;5063158;28;20029;-76
2023/11/10 06:04:48;;;;;;;42.47;12.52;;;;;;;4.67;100.00;97632.72;5090170;28;20024;-72
2023/11/10 06:07:16;;;;;;;33.60;13.15;;;;;;;4.85;100.00;97622.28;5090620;28;20060;-72
2023/11/10 06:09:41;;;;;;;28.73;12.80;;;;;;;5.05;100.00;97633.88;5091529;28;20412;-73
2023/11/10 06:12:07;;;;;;;29.33;11.77;;;;;;;5.55;100.00;97635.41;5090089;28;20028;-73
2023/11/10 06:14:33;;;;;;;27.45;12.90;;;;;;;6.10;100.00;97627.81;5072590;28;20112;-72
2023/11/10 06:16:58;;;;;;;45.22;12.00;;;;;;;6.19;100.00;97612.34;5069983;28;20032;-73
2023/11/10 06:19:24;;;;;;;27.20;12.55;;;;;;;6.23;100.00;97615.75;5077532;28;20483;-72
2023/11/10 06:21:50;;;;;;;20.13;9.20;;;;;;;6.44;100.00;97614.78;5090107;28;20047;-72
2023/11/10 06:24:16;;;;;;;36.03;11.10;;;;;;;7.48;100.00;97611.66;5091311;28;20484;-73
2023/11/10 06:26:42;;;;;;;19.30;9.98;;;;;;;8.29;100.00;97601.34;5073345;28;20035;-73
2023/11/10 06:29:10;;;;;;;22.13;10.93;;;;;;;9.08;100.00;97584.59;5090945;28;20052;-73
2023/11/10 06:31:35;;;;;;;32.25;12.25;;;;;;;9.75;100.00;97591.47;5090057;28;20467;-73
2023/11/10 06:34:01;;;;;;;23.83;13.30;;;;;;;10.14;100.00;97578.47;5091031;28;20040;-73
2023/11/10 06:36:26;;;;;;;21.10;11.57;;;;;;;10.62;100.00;97573.75;5091187;28;20020;-72
2023/11/10 06:38:52;;;;;;;23.60;11.38;;;;;;;11.00;100.00;97568.69;5089879;28;20396;-72
2023/11/10 06:41:18;;;;;;;21.23;10.32;;;;;;;11.28;100.00;97558.81;5090896;28;20052;-76
2023/11/10 06:43:47;;;;;;;21.38;11.45;;;;;;;11.62;100.00;97560.16;5089931;28;20565;-74
2023/11/10 06:46:20;;;;;;;39.65;15.00;;;;;;;11.61;100.00;97562.91;5072778;28;20043;-75
2023/11/10 06:48:46;;;;;;;63.17;19.45;;;;;;;11.48;100.00;97559.31;5067208;28;20052;-74
2023/11/10 06:51:12;;;;;;;33.78;16.20;;;;;;;11.98;100.00;97556.00;5069896;28;20029;-74
2023/11/10 06:53:37;;;;;;;33.72;14.23;;;;;;;12.22;100.00;97552.50;5088091;28;20077;-74
2023/11/10 06:56:03;;;;;;;23.90;12.30;;;;;;;12.90;96.94;97539.66;5089644;28;20020;-75
2023/11/10 06:58:29;;;;;;;32.00;12.68;;;;;;;13.29;90.03;97535.09;5090558;28;20058;-74
2023/11/10 07:00:54;;;;;;;26.15;12.02;;;;;;;13.61;87.23;97525.50;5072514;28;20110;-74
2023/11/10 07:03:21;;;;;;;44.50;20.98;;;;;;;13.71;88.04;97520.31;5090707;28;20483;-74
2023/11/10 07:05:47;;;;;;;46.92;18.80;;;;;;;13.94;87.12;97516.72;5089498;28;20498;-73
2023/11/10 07:08:13;;;;;;;34.13;16.05;;;;;;;14.28;82.92;97518.56;5080563;28;20033;-75
2023/11/10 07:10:43;;;;;;;47.83;17.85;;;;;;;14.28;82.95;97515.88;5087252;28;20051;-73
2023/11/10 07:13:10;;;;;;;33.35;11.70;;;;;;;15.08;78.13;97495.16;5073012;28;20032;-75
2023/11/10 07:15:36;;;;;;;37.85;14.60;;;;;;;15.46;71.76;97487.50;5089722;28;20084;-75
2023/11/10 07:18:02;;;;;;;28.63;11.30;;;;;;;16.11;66.38;97487.41;5089293;28;20039;-73
2023/11/10 07:20:30;;;;;;;30.17;14.73;;;;;;;16.82;63.20;97460.56;5089005;28;20070;-73
2023/11/10 07:22:58;;;;;;;14.05;6.35;;;;;;;17.17;58.52;97459.13;5087199;28;20459;-73
2023/11/10 07:25:27;;;;;;;18.15;6.32;;;;;;;17.64;57.78;97449.44;5073200;28;20411;-73
2023/11/10 07:27:54;;;;;;;12.70;6.35;;;;;;;17.69;57.49;97462.53;5072532;28;20105;-73
2023/11/10 07:30:21;;;;;;;29.63;11.30;;;;;;;17.70;57.62;97454.28;5065849;28;20051;-73
2023/11/10 07:32:47;;;;;;;30.63;12.88;;;;;;;17.13;61.00;97460.41;5069097;28;20024;-74
2023/11/10 07:35:13;;;;;;;35.55;15.30;;;;;;;17.27;61.40;97457.31;5070404;28;20107;-75
2023/11/10 07:37:44;;;;;;;46.17;17.63;;;;;;;17.45;60.28;97456.63;5079011;28;20016;-75
2023/11/10 07:40:17;;;;;;;28.05;10.73;;;;;;;17.61;59.28;97438.91;5089462;28;20060;-74
2023/11/10 07:42:44;;;;;;;19.98;8.95;;;;;;;17.69;59.46;97452.56;5089322;28;20070;-74
2023/11/10 07:45:14;;;;;;;26.05;12.30;;;;;;;17.97;57.72;97444.59;5092278;28;20019;-73
2023/11/10 07:47:47;;;;;;;18.60;9.15;;;;;;;18.05;57.56;97452.88;5093073;28;20499;-73
2023/11/10 07:50:18;;;;;;;27.33;11.10;;;;;;;18.33;56.97;97446.56;5093214;28;20098;-73
2023/11/10 07:52:46;;;;;;;26.23;9.18;;;;;;;18.20;57.55;97451.44;5093359;28;20032;-74
2023/11/10 07:55:13;;;;;;;21.88;9.30;;;;;;;18.72;56.16;97448.19;5094217;28;20038;-74
2023/11/10 07:57:39;;;;;;;21.45;8.95;;;;;;;19.38;54.10;97448.88;5092785;28;20400;-73
2023/11/10 08:00:08;;;;;;;22.95;8.48;;;;;;;19.97;52.78;97448.34;5094038;28;20047;-73
2023/11/10 08:02:35;;;;;;;29.77;11.68;;;;;;;20.04;51.17;97435.00;5092634;28;20046;-73
2023/11/10 08:05:01;;;;;;;29.23;10.82;;;;;;;20.90;48.65;97417.81;5093644;28;20032;-74
2023/11/10 08:07:27;;;;;;;25.95;12.95;;;;;;;21.26;47.86;97426.66;5075944;28;20069;-74
2023/11/10 08:09:52;;;;;;;21.17;13.40;;;;;;;21.17;48.65;97416.75;5093899;28;20028;-74
2023/11/10 08:12:18;;;;;;;32.88;12.30;;;;;;;20.77;50.07;97428.25;5094104;28;20039;-73
2023/11/10 08:14:43;;;;;;;22.80;8.73;;;;;;;20.78;49.91;97429.97;5092639;28;20032;-74
2023/11/10 08:17:11;;;;;;;20.67;8.63;;;;;;;20.70;49.90;97421.78;5092870;28;20056;-74
2023/11/10 08:19:38;;;;;;;30.33;12.77;;;;;;;20.54;50.06;97436.13;5092515;28;20035;-74
2023/11/10 08:22:06;;;;;;;33.30;12.20;;;;;;;21.10;49.11;97425.75;5092345;28;20055;-73
2023/11/10 08:24:31;;;;;;;26.80;13.27;;;;;;;21.38;48.05;97428.06;5092719;28;20039;-74
2023/11/10 08:26:57;;;;;;;20.90;12.00;;;;;;;21.16;48.86;97433.25;5092188;28;20028;-74
2023/11/10 08:29:24;;;;;;;20.33;10.55;;;;;;;21.76;48.69;97437.53;5093841;28;20140;-73
2023/11/10 08:31:50;;;;;;;21.23;8.40;;;;;;;21.45;48.10;97425.53;5075026;28;20028;-74
2023/11/10 08:34:16;;;;;;;13.35;6.43;;;;;;;21.31;48.56;97416.16;5072086;28;20028;-74
2023/11/10 08:36:42;;;;;;;8.77;3.88;;;;;;;20.77;47.69;97417.38;5072234;28;20028;-74
2023/11/10 08:39:08;;;;;;;9.30;3.60;;;;;;;20.39;49.72;97409.69;5055055;28;20060;-74
2023/11/10 08:41:33;;;;;;;10.32;3.60;;;;;;;20.98;48.67;97412.38;5071967;28;20082;-74
2023/11/10 08:43:59;;;;;;;4.93;3.30;;;;;;;20.82;48.82;97406.03;5071906;28;20086;-74
2023/11/10 08:46:25;;;;;;;5.25;3.47;;;;;;;21.16;48.75;97406.06;5073254;28;20408;-74
2023/11/10 08:48:51;;;;;;;8.75;3.35;;;;;;;21.93;47.33;97403.03;5071772;28;20040;-74
2023/11/10 08:51:17;;;;;;;6.60;2.88;;;;;;;22.00;46.89;97394.00;5071820;28;20392;-74
2023/11/10 08:53:43;;;;;;;6.40;2.92;;;;;;;22.05;46.00;97386.19;5071991;28;20024;-74
2023/11/10 08:56:09;;;;;;;10.57;3.63;;;;;;;21.75;46.04;97394.13;5081415;28;20480;-73
2023/11/10 08:58:34;;;;;;;6.60;3.20;;;;;;;22.47;45.09;97380.53;5078931;28;20024;-74
2023/11/10 09:01:00;;;;;;;7.13;3.80;;;;;;;22.01;45.52;97379.38;5072803;28;20094;-73
2023/11/10 09:03:26;;;;;;;7.75;3.20;;;;;;;21.76;45.93;97390.38;5072891;28;20100;-74
2023/11/10 09:05:52;;;;;;;7.32;4.20;;;;;;;21.62;45.48;97383.72;5071735;28;20116;-74
2023/11/10 09:08:17;;;;;;;10.98;5.97;;;;;;;20.98;46.88;97387.91;5072626;28;20020;-74
2023/11/10 09:10:51;;;;;;;13.55;5.20;;;;;;;20.80;47.26;97376.28;5079710;28;20100;-74
2023/11/10 09:13:30;;;;;;;9.02;5.00;;;;;;;20.74;47.93;97390.50;5091613;28;20085;-72
2023/11/10 09:15:56;;;;;;;12.82;5.70;;;;;;;20.35;48.91;97384.69;5071625;28;20036;-74
2023/11/10 09:18:21;;;;;;;13.10;4.80;;;;;;;20.37;47.19;97379.06;5088999;28;20028;-73
2023/11/10 09:20:47;;;;;;;20.58;4.50;;;;;;;20.25;46.99;97361.31;5091161;28;20154;-74
2023/11/10 09:23:13;;;;;;;8.52;3.83;;;;;;;20.57;47.52;97369.72;5075301;28;20043;-74
2023/11/10 09:25:39;;;;;;;4.80;3.30;;;;;;;20.77;45.67;97364.88;5091362;28;20140;-74
2023/11/10 09:28:05;;;;;;;8.10;3.10;;;;;;;21.04;43.95;97345.63;5091426;28;20077;-74
2023/11/10 09:30:33;;;;;;;6.88;3.13;;;;;;;20.97;44.33;97340.00;5074351;28;20471;-74
2023/11/10 09:32:59;;;;;;;2.80;2.20;;;;;;;20.29;44.68;97332.84;5091395;28;20057;-74
2023/11/10 09:35:26;;;;;;;2.55;1.95;;;;;;;19.42;46.23;97338.22;5090589;28;20453;-74
2023/11/10 09:37:52;;;;;;;2.92;1.83;;;;;;;18.64;47.56;97345.09;5070975;28;20062;-74
2023/11/10 09:40:21;;;;;;;2.20;1.73;;;;;;;17.95;49.15;97351.88;5072748;28;20040;-74
2023/11/10 09:42:48;;;;;;;2.60;1.75;;;;;;;17.44;50.86;97353.03;5071259;28;20024;-73
2023/11/10 09:45:15;;;;;;;3.47;2.03;;;;;;;17.11;50.93;97361.50;5071947;28;20124;-74
2023/11/10 09:47:41;;;;;;;2.67;1.75;;;;;;;16.88;52.53;97352.81;5070711;28;20039;-73
2023/11/10 09:50:10;;;;;;;3.75;2.50;;;;;;;16.75;53.57;97344.97;5070496;28;20028;-73
2023/11/10 09:52:36;;;;;;;4.05;2.80;;;;;;;16.88;53.73;97324.94;5070523;28;20024;-73
2023/11/10 09:55:02;;;;;;;3.03;1.88;;;;;;;16.91;53.88;97330.06;5053671;28;20523;-72
2023/11/10 09:57:28;;;;;;;2.95;1.90;;;;;;;17.29;52.22;97328.25;5070318;28;20108;-73
2023/11/10 09:59:55;;;;;;;2.60;1.63;;;;;;;17.47;51.84;97314.03;5070539;28;20028;-73
2023/11/10 10:02:21;;;;;;;2.47;1.95;;;;;;;17.40;52.39;97321.84;5082337;28;20063;-74
2023/11/10 10:04:47;;;;;;;2.58;1.95;;;;;;;17.53;52.27;97327.84;5058546;28;20115;-74
2023/11/10 10:07:13;;;;;;;2.88;1.70;;;;;;;17.49;51.76;97318.28;5081645;28;20115;-73
2023/11/10 10:09:43;;;;;;;2.80;1.95;;;;;;;17.01;53.44;97314.72;5073632;28;20027;-73
2023/11/10 10:12:14;;;;;;;2.95;2.00;;;;;;;16.80;55.62;97318.38;5090221;28;20020;-72
2023/11/10 10:14:40;;;;;;;2.45;1.92;;;;;;;16.63;57.34;97310.94;5092026;28;20035;-73
2023/11/10 10:17:11;;;;;;;3.05;1.35;;;;;;;16.60;56.45;97308.53;5090271;28;20023;-72
2023/11/10 10:19:36;;;;;;;3.67;2.15;;;;;;;16.40;58.26;97301.31;5090145;28;20024;-73
2023/11/10 10:22:02;;;;;;;2.85;2.15;;;;;;;16.14;59.98;97300.94;5090281;28;20058;-73
2023/11/10 10:24:28;;;;;;;3.15;2.30;;;;;;;16.06;62.15;97297.19;5090464;28;20058;-72
2023/11/10 10:26:56;;;;;;;6.68;3.45;;;;;;;16.00;64.04;97295.03;5091520;28;20061;-73
2023/11/10 10:29:22;;;;;;;2.47;1.67;;;;;;;15.89;61.35;97273.53;5090226;28;20470;-73
2023/11/10 10:31:48;;;;;;;3.33;2.30;;;;;;;15.76;62.89;97271.06;5090569;28;20024;-74
2023/11/10 10:34:17;;;;;;;4.20;1.90;;;;;;;15.56;64.12;97248.53;5091141;28;20058;-73
2023/11/10 10:36:44;;;;;;;2.92;2.00;;;;;;;15.58;65.73;97251.94;5073216;28;20028;-73
2023/11/10 10:39:14;;;;;;;2.50;2.10;;;;;;;15.52;65.35;97241.69;5091085;28;20467;-73
2023/11/10 10:41:42;;;;;;;2.70;1.95;;;;;;;15.49;67.12;97249.19;5091423;28;20016;-74
2023/11/10 10:44:08;;;;;;;2.80;2.53;;;;;;;15.37;68.81;97239.44;5089860;28;20027;-73
2023/11/10 10:46:35;;;;;;;4.82;2.50;;;;;;;15.32;67.50;97234.41;5089641;28;20498;-72
2023/11/10 10:49:06;;;;;;;5.18;2.88;;;;;;;15.46;68.37;97238.63;5089974;28;20020;-74
2023/11/10 10:51:36;;;;;;;3.53;2.63;;;;;;;15.52;68.18;97214.75;5054382;28;20123;-73
2023/11/10 10:54:07;;;;;;;4.30;2.67;;;;;;;15.58;67.23;97213.34;5059084;28;20038;-73
2023/11/10 10:56:37;;;;;;;3.50;2.42;;;;;;;15.71;67.44;97212.16;5089711;28;20012;-74
2023/11/10 10:59:07;;;;;;;5.57;3.13;;;;;;;15.71;67.07;97198.66;5089871;28;20024;-72
2023/11/10 11:01:33;;;;;;;8.98;4.45;;;;;;;15.89;66.37;97196.16;5089498;28;20024;-72
2023/11/10 11:04:28;;;;;;;5.00;3.58;;;;;;;16.13;67.09;97193.13;5089700;28;20032;-73
2023/11/10 11:07:16;;;;;;;5.03;2.85;;;;;;;16.12;66.75;97188.69;5090985;28;20028;-72
2023/11/10 11:10:00;;;;;;;5.82;3.13;;;;;;;16.15;66.68;97178.50;5090771;28;20609;-73
2023/11/10 11:12:56;;;;;;;9.75;2.70;;;;;;;16.22;64.44;97176.09;5090356;28;20028;-73
2023/11/10 11:15:29;;;;;;;4.18;2.95;;;;;;;16.44;63.58;97180.41;5087847;28;20034;-72
2023/11/10 11:18:16;;;;;;;2.80;2.25;;;;;;;16.64;61.88;97180.28;5069232;28;20028;-73
2023/11/10 11:20:42;;;;;;;4.18;2.20;;;;;;;16.61;60.30;97174.34;5068565;28;20044;-73
2023/11/10 11:23:09;;;;;;;4.88;2.72;;;;;;;16.51;62.98;97182.41;5069221;28;20107;-72
2023/11/10 11:25:37;;;;;;;4.07;2.58;;;;;;;16.43;62.12;97174.13;5052143;28;20411;-73